sensor_id;sensor_type;location;lat;lon;timestamp;temperature;humidity
30520;DHT22;17300;50.374;8.006;2023-06-01T00:00:52;18.50;45.30
30520;DHT22;17300;50.374;8.006;2023-06-01T00:03:21;18.50;45.50
30520;DHT22;17300;50.374;8.006;2023-06-01T00:05:49;18.50;45.50
30520;DHT22;17300;50.374;8.006;2023-06-01T00:08:16;18.40;45.50
30520;DHT22;17300;50.374;8.006;2023-06-01T00:10:43;18.40;45.50
30520;DHT22;17300;50.374;8.006;2023-06-01T00:13:10;18.30;45.50
30520;DHT22;17300;50.374;8.006;2023-06-01T00:15:36;18.30;45.50
30520;DHT22;17300;50.374;8.006;2023-06-01T00:18:03;18.30;45.60
30520;DHT22;17300;50.374;8.006;2023-06-01T00:20:31;18.30;45.60
30520;DHT22;17300;50.374;8.006;2023-06-01T00:22:59;18.20;45.60
30520;DHT22;17300;50.374;8.006;2023-06-01T00:25:25;18.20;45.90
30520;DHT22;17300;50.374;8.006;2023-06-01T00:27:52;18.10;45.80
30520;DHT22;17300;50.374;8.006;2023-06-01T00:30:19;18.10;46.00
30520;DHT22;17300;50.374;8.006;2023-06-01T00:32:45;18.10;46.10
30520;DHT22;17300;50.374;8.006;2023-06-01T00:35:12;18.00;46.10
30520;DHT22;17300;50.374;8.006;2023-06-01T00:37:38;18.00;46.20
30520;DHT22;17300;50.374;8.006;2023-06-01T00:40:07;18.00;46.40
30520;DHT22;17300;50.374;8.006;2023-06-01T00:42:34;17.90;46.50
30520;DHT22;17300;50.374;8.006;2023-06-01T00:45:01;17.90;46.50
30520;DHT22;17300;50.374;8.006;2023-06-01T00:47:27;17.90;46.60
30520;DHT22;17300;50.374;8.006;2023-06-01T00:49:54;17.80;46.60
30520;DHT22;17300;50.374;8.006;2023-06-01T00:52:22;17.80;46.60
30520;DHT22;17300;50.374;8.006;2023-06-01T00:54:49;17.80;46.80
30520;DHT22;17300;50.374;8.006;2023-06-01T00:57:18;17.80;46.80
30520;DHT22;17300;50.374;8.006;2023-06-01T00:59:46;17.70;47.10
30520;DHT22;17300;50.374;8.006;2023-06-01T01:02:13;17.70;47.00
30520;DHT22;17300;50.374;8.006;2023-06-01T01:04:40;17.60;47.00
30520;DHT22;17300;50.374;8.006;2023-06-01T01:07:17;17.60;47.00
30520;DHT22;17300;50.374;8.006;2023-06-01T01:09:52;17.60;47.60
30520;DHT22;17300;50.374;8.006;2023-06-01T01:12:30;17.60;47.30
30520;DHT22;17300;50.374;8.006;2023-06-01T01:15:04;17.50;47.50
30520;DHT22;17300;50.374;8.006;2023-06-01T01:17:37;17.50;47.40
30520;DHT22;17300;50.374;8.006;2023-06-01T01:20:09;17.50;47.20
30520;DHT22;17300;50.374;8.006;2023-06-01T01:22:47;17.40;47.40
30520;DHT22;17300;50.374;8.006;2023-06-01T01:25:44;17.40;47.60
30520;DHT22;17300;50.374;8.006;2023-06-01T01:28:28;17.40;47.90
30520;DHT22;17300;50.374;8.006;2023-06-01T01:30:59;17.30;47.80
30520;DHT22;17300;50.374;8.006;2023-06-01T01:33:26;17.30;47.10
30520;DHT22;17300;50.374;8.006;2023-06-01T01:35:53;17.30;47.20
30520;DHT22;17300;50.374;8.006;2023-06-01T01:38:20;17.20;47.30
30520;DHT22;17300;50.374;8.006;2023-06-01T01:40:47;17.20;47.50
30520;DHT22;17300;50.374;8.006;2023-06-01T01:43:15;17.20;47.60
30520;DHT22;17300;50.374;8.006;2023-06-01T01:45:43;17.10;47.60
30520;DHT22;17300;50.374;8.006;2023-06-01T01:48:27;17.10;47.70
30520;DHT22;17300;50.374;8.006;2023-06-01T01:51:01;17.10;48.00
30520;DHT22;17300;50.374;8.006;2023-06-01T01:53:29;17.00;47.70
30520;DHT22;17300;50.374;8.006;2023-06-01T01:55:58;17.00;47.50
30520;DHT22;17300;50.374;8.006;2023-06-01T01:58:25;17.00;47.60
30520;DHT22;17300;50.374;8.006;2023-06-01T02:00:54;16.90;47.60
30520;DHT22;17300;50.374;8.006;2023-06-01T02:03:22;16.90;47.90
30520;DHT22;17300;50.374;8.006;2023-06-01T02:05:49;16.90;47.80
30520;DHT22;17300;50.374;8.006;2023-06-01T02:08:15;16.80;47.90
30520;DHT22;17300;50.374;8.006;2023-06-01T02:10:42;16.80;48.00
30520;DHT22;17300;50.374;8.006;2023-06-01T02:13:09;16.80;48.10
30520;DHT22;17300;50.374;8.006;2023-06-01T02:15:36;16.80;48.10
30520;DHT22;17300;50.374;8.006;2023-06-01T02:18:04;16.70;48.10
30520;DHT22;17300;50.374;8.006;2023-06-01T02:20:30;16.70;48.20
30520;DHT22;17300;50.374;8.006;2023-06-01T02:22:57;16.60;48.10
30520;DHT22;17300;50.374;8.006;2023-06-01T02:25:24;16.60;48.10
30520;DHT22;17300;50.374;8.006;2023-06-01T02:27:50;16.60;48.10
30520;DHT22;17300;50.374;8.006;2023-06-01T02:30:17;16.60;48.20
30520;DHT22;17300;50.374;8.006;2023-06-01T02:32:44;16.50;48.30
30520;DHT22;17300;50.374;8.006;2023-06-01T02:35:15;16.50;48.40
30520;DHT22;17300;50.374;8.006;2023-06-01T02:37:41;16.50;48.50
30520;DHT22;17300;50.374;8.006;2023-06-01T02:40:08;16.40;48.30
30520;DHT22;17300;50.374;8.006;2023-06-01T02:42:37;16.40;48.40
30520;DHT22;17300;50.374;8.006;2023-06-01T02:45:04;16.40;48.40
30520;DHT22;17300;50.374;8.006;2023-06-01T02:47:31;16.40;48.50
30520;DHT22;17300;50.374;8.006;2023-06-01T02:49:57;16.30;48.50
30520;DHT22;17300;50.374;8.006;2023-06-01T02:52:26;16.30;48.60
30520;DHT22;17300;50.374;8.006;2023-06-01T02:54:53;16.30;48.60
30520;DHT22;17300;50.374;8.006;2023-06-01T02:57:19;16.20;48.50
30520;DHT22;17300;50.374;8.006;2023-06-01T02:59:46;16.20;48.50
30520;DHT22;17300;50.374;8.006;2023-06-01T03:02:12;16.20;48.60
30520;DHT22;17300;50.374;8.006;2023-06-01T03:04:39;16.10;48.50
30520;DHT22;17300;50.374;8.006;2023-06-01T03:07:06;16.10;48.70
30520;DHT22;17300;50.374;8.006;2023-06-01T03:09:34;16.10;48.70
30520;DHT22;17300;50.374;8.006;2023-06-01T03:12:00;16.00;48.80
30520;DHT22;17300;50.374;8.006;2023-06-01T03:14:27;16.00;48.80
30520;DHT22;17300;50.374;8.006;2023-06-01T03:16:54;16.10;48.90
30520;DHT22;17300;50.374;8.006;2023-06-01T03:19:21;16.00;48.80
30520;DHT22;17300;50.374;8.006;2023-06-01T03:21:47;16.00;48.90
30520;DHT22;17300;50.374;8.006;2023-06-01T03:24:14;15.90;48.80
30520;DHT22;17300;50.374;8.006;2023-06-01T03:26:44;15.90;48.90
30520;DHT22;17300;50.374;8.006;2023-06-01T03:29:10;15.90;49.00
30520;DHT22;17300;50.374;8.006;2023-06-01T03:31:37;15.90;49.10
30520;DHT22;17300;50.374;8.006;2023-06-01T03:34:04;15.80;49.20
30520;DHT22;17300;50.374;8.006;2023-06-01T03:36:30;15.80;49.30
30520;DHT22;17300;50.374;8.006;2023-06-01T03:38:58;15.80;49.40
30520;DHT22;17300;50.374;8.006;2023-06-01T03:41:24;15.80;49.40
30520;DHT22;17300;50.374;8.006;2023-06-01T03:43:52;15.70;49.30
30520;DHT22;17300;50.374;8.006;2023-06-01T03:46:20;15.70;49.40
30520;DHT22;17300;50.374;8.006;2023-06-01T03:48:46;15.70;49.40
30520;DHT22;17300;50.374;8.006;2023-06-01T03:51:13;15.70;49.40
30520;DHT22;17300;50.374;8.006;2023-06-01T03:53:39;15.70;49.50
30520;DHT22;17300;50.374;8.006;2023-06-01T03:56:06;15.70;49.60
30520;DHT22;17300;50.374;8.006;2023-06-01T03:58:33;15.70;49.70
30520;DHT22;17300;50.374;8.006;2023-06-01T04:01:01;15.60;49.60
30520;DHT22;17300;50.374;8.006;2023-06-01T04:03:29;15.60;49.80
30520;DHT22;17300;50.374;8.006;2023-06-01T04:05:56;15.60;49.80
30520;DHT22;17300;50.374;8.006;2023-06-01T04:08:24;15.60;49.90
30520;DHT22;17300;50.374;8.006;2023-06-01T04:10:52;15.60;49.90
30520;DHT22;17300;50.374;8.006;2023-06-01T04:13:18;15.60;50.00
30520;DHT22;17300;50.374;8.006;2023-06-01T04:15:45;15.60;50.00
30520;DHT22;17300;50.374;8.006;2023-06-01T04:18:13;15.70;50.30
30520;DHT22;17300;50.374;8.006;2023-06-01T04:20:40;15.60;50.40
30520;DHT22;17300;50.374;8.006;2023-06-01T04:23:07;15.70;50.50
30520;DHT22;17300;50.374;8.006;2023-06-01T04:25:33;15.70;50.50
30520;DHT22;17300;50.374;8.006;2023-06-01T04:28:00;15.70;51.20
30520;DHT22;17300;50.374;8.006;2023-06-01T04:30:27;15.70;50.70
30520;DHT22;17300;50.374;8.006;2023-06-01T04:32:54;15.70;50.80
30520;DHT22;17300;50.374;8.006;2023-06-01T04:35:22;15.70;50.90
30520;DHT22;17300;50.374;8.006;2023-06-01T04:37:49;15.80;51.10
30520;DHT22;17300;50.374;8.006;2023-06-01T04:40:15;15.80;51.00
30520;DHT22;17300;50.374;8.006;2023-06-01T04:42:43;15.80;51.10
30520;DHT22;17300;50.374;8.006;2023-06-01T04:45:14;15.90;51.30
30520;DHT22;17300;50.374;8.006;2023-06-01T04:47:41;15.90;51.30
30520;DHT22;17300;50.374;8.006;2023-06-01T04:50:11;16.00;51.40
30520;DHT22;17300;50.374;8.006;2023-06-01T04:52:40;16.00;51.40
30520;DHT22;17300;50.374;8.006;2023-06-01T04:55:07;16.10;51.50
30520;DHT22;17300;50.374;8.006;2023-06-01T04:57:35;16.10;51.50
30520;DHT22;17300;50.374;8.006;2023-06-01T05:00:05;16.20;51.70
30520;DHT22;17300;50.374;8.006;2023-06-01T05:02:34;16.20;51.80
30520;DHT22;17300;50.374;8.006;2023-06-01T05:05:01;16.30;51.90
30520;DHT22;17300;50.374;8.006;2023-06-01T05:07:27;16.30;51.90
30520;DHT22;17300;50.374;8.006;2023-06-01T05:09:55;16.40;52.00
30520;DHT22;17300;50.374;8.006;2023-06-01T05:12:22;16.40;52.20
30520;DHT22;17300;50.374;8.006;2023-06-01T05:14:49;16.50;52.10
30520;DHT22;17300;50.374;8.006;2023-06-01T05:17:16;16.60;52.00
30520;DHT22;17300;50.374;8.006;2023-06-01T05:19:42;16.60;52.10
30520;DHT22;17300;50.374;8.006;2023-06-01T05:22:09;16.70;52.40
30520;DHT22;17300;50.374;8.006;2023-06-01T05:24:37;16.80;52.90
30520;DHT22;17300;50.374;8.006;2023-06-01T05:27:05;16.90;53.70
30520;DHT22;17300;50.374;8.006;2023-06-01T05:29:32;17.20;54.30
30520;DHT22;17300;50.374;8.006;2023-06-01T05:31:59;17.50;54.90
30520;DHT22;17300;50.374;8.006;2023-06-01T05:34:26;17.80;55.60
30520;DHT22;17300;50.374;8.006;2023-06-01T05:36:52;18.20;56.40
30520;DHT22;17300;50.374;8.006;2023-06-01T05:39:19;18.70;56.90
30520;DHT22;17300;50.374;8.006;2023-06-01T05:41:46;19.50;57.50
30520;DHT22;17300;50.374;8.006;2023-06-01T05:44:14;20.00;57.10
30520;DHT22;17300;50.374;8.006;2023-06-01T05:46:40;20.80;57.40
30520;DHT22;17300;50.374;8.006;2023-06-01T05:49:07;21.50;57.40
30520;DHT22;17300;50.374;8.006;2023-06-01T05:51:33;22.40;57.50
30520;DHT22;17300;50.374;8.006;2023-06-01T05:54:03;23.20;57.10
30520;DHT22;17300;50.374;8.006;2023-06-01T05:56:30;24.10;56.40
30520;DHT22;17300;50.374;8.006;2023-06-01T05:58:57;25.00;55.90
30520;DHT22;17300;50.374;8.006;2023-06-01T06:01:26;25.90;55.10
30520;DHT22;17300;50.374;8.006;2023-06-01T06:03:54;26.80;54.30
30520;DHT22;17300;50.374;8.006;2023-06-01T06:06:21;27.60;53.60
30520;DHT22;17300;50.374;8.006;2023-06-01T06:08:47;28.50;52.20
30520;DHT22;17300;50.374;8.006;2023-06-01T06:11:14;29.40;50.90
30520;DHT22;17300;50.374;8.006;2023-06-01T06:13:41;30.20;49.40
30520;DHT22;17300;50.374;8.006;2023-06-01T06:16:08;31.00;48.00
30520;DHT22;17300;50.374;8.006;2023-06-01T06:18:36;31.60;46.90
30520;DHT22;17300;50.374;8.006;2023-06-01T06:21:03;32.40;45.60
30520;DHT22;17300;50.374;8.006;2023-06-01T06:23:29;33.10;44.90
30520;DHT22;17300;50.374;8.006;2023-06-01T06:25:58;33.80;44.20
30520;DHT22;17300;50.374;8.006;2023-06-01T06:28:24;34.50;43.20
30520;DHT22;17300;50.374;8.006;2023-06-01T06:30:52;35.30;41.80
30520;DHT22;17300;50.374;8.006;2023-06-01T06:33:18;36.00;40.40
30520;DHT22;17300;50.374;8.006;2023-06-01T06:35:46;36.60;39.50
30520;DHT22;17300;50.374;8.006;2023-06-01T06:38:13;37.30;38.30
30520;DHT22;17300;50.374;8.006;2023-06-01T06:40:41;38.00;37.50
30520;DHT22;17300;50.374;8.006;2023-06-01T06:43:08;38.60;36.20
30520;DHT22;17300;50.374;8.006;2023-06-01T06:45:35;39.30;35.30
30520;DHT22;17300;50.374;8.006;2023-06-01T06:48:02;39.90;34.00
30520;DHT22;17300;50.374;8.006;2023-06-01T06:50:28;40.40;32.80
30520;DHT22;17300;50.374;8.006;2023-06-01T06:52:56;41.00;31.90
30520;DHT22;17300;50.374;8.006;2023-06-01T06:55:24;41.50;30.40
30520;DHT22;17300;50.374;8.006;2023-06-01T06:57:52;42.00;29.90
30520;DHT22;17300;50.374;8.006;2023-06-01T07:00:20;42.40;29.40
30520;DHT22;17300;50.374;8.006;2023-06-01T07:02:47;42.80;29.30
30520;DHT22;17300;50.374;8.006;2023-06-01T07:05:13;43.20;28.60
30520;DHT22;17300;50.374;8.006;2023-06-01T07:07:41;43.70;28.00
30520;DHT22;17300;50.374;8.006;2023-06-01T07:10:09;44.00;27.50
30520;DHT22;17300;50.374;8.006;2023-06-01T07:12:36;44.40;26.90
30520;DHT22;17300;50.374;8.006;2023-06-01T07:15:04;44.70;26.40
30520;DHT22;17300;50.374;8.006;2023-06-01T07:17:31;45.00;26.00
30520;DHT22;17300;50.374;8.006;2023-06-01T07:19:59;45.50;23.90
30520;DHT22;17300;50.374;8.006;2023-06-01T07:22:26;45.60;25.10
30520;DHT22;17300;50.374;8.006;2023-06-01T07:24:53;45.80;25.00
30520;DHT22;17300;50.374;8.006;2023-06-01T07:27:21;46.10;25.10
30520;DHT22;17300;50.374;8.006;2023-06-01T07:29:48;46.40;24.80
30520;DHT22;17300;50.374;8.006;2023-06-01T07:32:20;46.70;24.70
30520;DHT22;17300;50.374;8.006;2023-06-01T07:34:47;47.00;24.20
30520;DHT22;17300;50.374;8.006;2023-06-01T07:37:13;47.30;23.80
30520;DHT22;17300;50.374;8.006;2023-06-01T07:39:40;47.60;23.50
30520;DHT22;17300;50.374;8.006;2023-06-01T07:42:07;47.90;23.70
30520;DHT22;17300;50.374;8.006;2023-06-01T07:44:35;48.20;23.40
30520;DHT22;17300;50.374;8.006;2023-06-01T07:47:02;48.50;23.00
30520;DHT22;17300;50.374;8.006;2023-06-01T07:49:29;48.80;22.90
30520;DHT22;17300;50.374;8.006;2023-06-01T07:51:55;49.00;22.40
30520;DHT22;17300;50.374;8.006;2023-06-01T07:54:24;49.20;22.50
30520;DHT22;17300;50.374;8.006;2023-06-01T07:56:51;49.60;22.50
30520;DHT22;17300;50.374;8.006;2023-06-01T07:59:18;49.80;21.90
30520;DHT22;17300;50.374;8.006;2023-06-01T08:01:48;50.00;22.00
30520;DHT22;17300;50.374;8.006;2023-06-01T08:04:15;50.30;21.50
30520;DHT22;17300;50.374;8.006;2023-06-01T08:06:42;50.50;21.40
30520;DHT22;17300;50.374;8.006;2023-06-01T08:09:09;50.70;20.90
30520;DHT22;17300;50.374;8.006;2023-06-01T08:11:36;50.80;20.60
30520;DHT22;17300;50.374;8.006;2023-06-01T08:14:02;50.90;20.70
30520;DHT22;17300;50.374;8.006;2023-06-01T08:16:32;51.00;20.50
30520;DHT22;17300;50.374;8.006;2023-06-01T08:19:01;51.10;20.30
30520;DHT22;17300;50.374;8.006;2023-06-01T08:21:28;51.20;20.30
30520;DHT22;17300;50.374;8.006;2023-06-01T08:23:55;51.30;20.10
30520;DHT22;17300;50.374;8.006;2023-06-01T08:26:22;51.50;19.80
30520;DHT22;17300;50.374;8.006;2023-06-01T08:28:49;51.50;19.60
30520;DHT22;17300;50.374;8.006;2023-06-01T08:31:19;51.50;19.40
30520;DHT22;17300;50.374;8.006;2023-06-01T08:33:47;51.50;19.30
30520;DHT22;17300;50.374;8.006;2023-06-01T08:36:15;51.40;19.20
30520;DHT22;17300;50.374;8.006;2023-06-01T08:38:42;51.40;19.50
30520;DHT22;17300;50.374;8.006;2023-06-01T08:41:14;51.30;19.60
30520;DHT22;17300;50.374;8.006;2023-06-01T08:43:44;51.20;19.50
30520;DHT22;17300;50.374;8.006;2023-06-01T08:46:13;51.20;19.60
30520;DHT22;17300;50.374;8.006;2023-06-01T08:48:41;51.20;19.40
30520;DHT22;17300;50.374;8.006;2023-06-01T08:51:09;51.20;19.10
30520;DHT22;17300;50.374;8.006;2023-06-01T08:53:38;51.10;19.00
30520;DHT22;17300;50.374;8.006;2023-06-01T08:56:07;51.00;19.00
30520;DHT22;17300;50.374;8.006;2023-06-01T08:58:35;51.00;18.60
30520;DHT22;17300;50.374;8.006;2023-06-01T09:01:02;51.00;19.10
30520;DHT22;17300;50.374;8.006;2023-06-01T09:03:29;50.90;18.90
30520;DHT22;17300;50.374;8.006;2023-06-01T09:05:56;51.00;19.00
30520;DHT22;17300;50.374;8.006;2023-06-01T09:08:23;51.00;19.10
30520;DHT22;17300;50.374;8.006;2023-06-01T09:10:52;51.20;19.30
30520;DHT22;17300;50.374;8.006;2023-06-01T09:13:31;51.30;19.50
30520;DHT22;17300;50.374;8.006;2023-06-01T09:15:58;51.50;19.10
30520;DHT22;17300;50.374;8.006;2023-06-01T09:18:24;51.60;19.10
30520;DHT22;17300;50.374;8.006;2023-06-01T09:20:51;51.70;19.00
30520;DHT22;17300;50.374;8.006;2023-06-01T09:23:23;51.90;19.20
30520;DHT22;17300;50.374;8.006;2023-06-01T09:26:05;52.00;18.30
30520;DHT22;17300;50.374;8.006;2023-06-01T09:28:52;52.10;18.60
30520;DHT22;17300;50.374;8.006;2023-06-01T09:31:38;52.10;19.00
30520;DHT22;17300;50.374;8.006;2023-06-01T09:34:06;52.20;18.40
30520;DHT22;17300;50.374;8.006;2023-06-01T09:36:33;52.20;18.40
30520;DHT22;17300;50.374;8.006;2023-06-01T09:39:02;52.40;18.40
30520;DHT22;17300;50.374;8.006;2023-06-01T09:41:47;52.60;18.60
30520;DHT22;17300;50.374;8.006;2023-06-01T09:44:14;52.70;19.40
30520;DHT22;17300;50.374;8.006;2023-06-01T09:46:48;52.90;18.60
30520;DHT22;17300;50.374;8.006;2023-06-01T09:49:19;53.00;18.40
30520;DHT22;17300;50.374;8.006;2023-06-01T09:51:47;53.20;17.20
30520;DHT22;17300;50.374;8.006;2023-06-01T09:54:24;53.20;18.00
30520;DHT22;17300;50.374;8.006;2023-06-01T09:56:53;53.20;18.30
30520;DHT22;17300;50.374;8.006;2023-06-01T09:59:21;53.30;18.10
30520;DHT22;17300;50.374;8.006;2023-06-01T10:01:51;53.30;17.80
30520;DHT22;17300;50.374;8.006;2023-06-01T10:04:21;53.20;17.80
30520;DHT22;17300;50.374;8.006;2023-06-01T10:06:49;53.20;17.90
30520;DHT22;17300;50.374;8.006;2023-06-01T10:09:17;53.20;18.10
30520;DHT22;17300;50.374;8.006;2023-06-01T10:11:45;53.10;18.00
30520;DHT22;17300;50.374;8.006;2023-06-01T10:14:14;53.10;17.80
30520;DHT22;17300;50.374;8.006;2023-06-01T10:16:41;53.10;17.80
30520;DHT22;17300;50.374;8.006;2023-06-01T10:19:08;53.10;17.50
30520;DHT22;17300;50.374;8.006;2023-06-01T10:21:35;53.00;17.40
30520;DHT22;17300;50.374;8.006;2023-06-01T10:24:02;52.90;17.50
30520;DHT22;17300;50.374;8.006;2023-06-01T10:26:35;52.80;17.80
30520;DHT22;17300;50.374;8.006;2023-06-01T10:29:02;52.60;17.80
30520;DHT22;17300;50.374;8.006;2023-06-01T10:31:34;52.50;17.70
30520;DHT22;17300;50.374;8.006;2023-06-01T10:34:01;52.40;17.60
30520;DHT22;17300;50.374;8.006;2023-06-01T10:39:32;52.10;17.40
30520;DHT22;17300;50.374;8.006;2023-06-01T10:42:35;51.80;17.40
30520;DHT22;17300;50.374;8.006;2023-06-01T10:45:04;51.60;17.70
30520;DHT22;17300;50.374;8.006;2023-06-01T10:47:48;51.40;18.20
30520;DHT22;17300;50.374;8.006;2023-06-01T10:50:16;51.20;17.70
30520;DHT22;17300;50.374;8.006;2023-06-01T10:52:43;51.10;18.00
30520;DHT22;17300;50.374;8.006;2023-06-01T10:55:21;50.90;18.00
30520;DHT22;17300;50.374;8.006;2023-06-01T10:57:49;50.60;17.60
30520;DHT22;17300;50.374;8.006;2023-06-01T11:00:18;50.30;17.70
30520;DHT22;17300;50.374;8.006;2023-06-01T11:02:49;50.00;17.90
30520;DHT22;17300;50.374;8.006;2023-06-01T11:05:38;49.60;18.00
30520;DHT22;17300;50.374;8.006;2023-06-01T11:08:06;49.30;17.90
30520;DHT22;17300;50.374;8.006;2023-06-01T11:10:56;48.90;17.90
30520;DHT22;17300;50.374;8.006;2023-06-01T11:13:24;48.40;17.80
30520;DHT22;17300;50.374;8.006;2023-06-01T11:16:27;47.70;17.70
30520;DHT22;17300;50.374;8.006;2023-06-01T11:18:56;47.10;18.00
30520;DHT22;17300;50.374;8.006;2023-06-01T11:21:29;46.50;18.40
30520;DHT22;17300;50.374;8.006;2023-06-01T11:23:57;45.80;18.40
30520;DHT22;17300;50.374;8.006;2023-06-01T11:26:29;45.30;18.70
30520;DHT22;17300;50.374;8.006;2023-06-01T11:29:07;44.80;19.00
30520;DHT22;17300;50.374;8.006;2023-06-01T11:31:35;44.30;19.70
30520;DHT22;17300;50.374;8.006;2023-06-01T11:34:04;43.90;19.10
30520;DHT22;17300;50.374;8.006;2023-06-01T11:36:39;43.40;19.40
30520;DHT22;17300;50.374;8.006;2023-06-01T11:39:16;43.00;19.30
30520;DHT22;17300;50.374;8.006;2023-06-01T11:41:46;42.50;20.10
30520;DHT22;17300;50.374;8.006;2023-06-01T11:44:13;42.10;19.90
30520;DHT22;17300;50.374;8.006;2023-06-01T11:46:53;41.60;20.30
30520;DHT22;17300;50.374;8.006;2023-06-01T11:49:22;41.20;20.80
30520;DHT22;17300;50.374;8.006;2023-06-01T11:51:49;40.70;20.60
30520;DHT22;17300;50.374;8.006;2023-06-01T11:54:22;40.30;20.70
30520;DHT22;17300;50.374;8.006;2023-06-01T11:56:49;39.90;20.90
30520;DHT22;17300;50.374;8.006;2023-06-01T11:59:17;39.50;21.00
30520;DHT22;17300;50.374;8.006;2023-06-01T12:01:46;39.00;21.20
30520;DHT22;17300;50.374;8.006;2023-06-01T12:04:12;38.60;21.70
30520;DHT22;17300;50.374;8.006;2023-06-01T12:06:41;38.20;22.30
30520;DHT22;17300;50.374;8.006;2023-06-01T12:09:09;37.80;22.30
30520;DHT22;17300;50.374;8.006;2023-06-01T12:11:36;37.50;22.60
30520;DHT22;17300;50.374;8.006;2023-06-01T12:14:03;37.20;22.90
30520;DHT22;17300;50.374;8.006;2023-06-01T12:16:56;36.90;23.00
30520;DHT22;17300;50.374;8.006;2023-06-01T12:19:25;36.50;24.40
30520;DHT22;17300;50.374;8.006;2023-06-01T12:21:54;36.30;23.80
30520;DHT22;17300;50.374;8.006;2023-06-01T12:24:28;36.00;24.40
30520;DHT22;17300;50.374;8.006;2023-06-01T12:26:57;35.80;24.50
30520;DHT22;17300;50.374;8.006;2023-06-01T12:29:37;35.50;24.50
30520;DHT22;17300;50.374;8.006;2023-06-01T12:32:05;35.30;25.10
30520;DHT22;17300;50.374;8.006;2023-06-01T12:34:32;35.10;24.90
30520;DHT22;17300;50.374;8.006;2023-06-01T12:37:10;34.90;25.30
30520;DHT22;17300;50.374;8.006;2023-06-01T12:39:38;34.70;25.50
30520;DHT22;17300;50.374;8.006;2023-06-01T12:42:06;34.50;25.70
30520;DHT22;17300;50.374;8.006;2023-06-01T12:44:33;34.30;25.60
30520;DHT22;17300;50.374;8.006;2023-06-01T12:47:00;34.10;26.00
30520;DHT22;17300;50.374;8.006;2023-06-01T12:49:29;34.00;26.60
30520;DHT22;17300;50.374;8.006;2023-06-01T12:51:56;33.80;27.00
30520;DHT22;17300;50.374;8.006;2023-06-01T12:54:24;33.70;26.90
30520;DHT22;17300;50.374;8.006;2023-06-01T12:56:51;33.50;26.80
30520;DHT22;17300;50.374;8.006;2023-06-01T12:59:18;33.40;27.10
30520;DHT22;17300;50.374;8.006;2023-06-01T13:01:44;33.30;27.40
30520;DHT22;17300;50.374;8.006;2023-06-01T13:04:11;33.20;27.80
30520;DHT22;17300;50.374;8.006;2023-06-01T13:06:38;33.00;27.90
30520;DHT22;17300;50.374;8.006;2023-06-01T13:09:05;32.90;27.90
30520;DHT22;17300;50.374;8.006;2023-06-01T13:11:34;32.80;28.10
30520;DHT22;17300;50.374;8.006;2023-06-01T13:14:00;32.80;28.30
30520;DHT22;17300;50.374;8.006;2023-06-01T13:16:27;32.60;28.30
30520;DHT22;17300;50.374;8.006;2023-06-01T13:18:55;32.50;28.40
30520;DHT22;17300;50.374;8.006;2023-06-01T13:21:23;32.40;28.60
30520;DHT22;17300;50.374;8.006;2023-06-01T13:23:49;32.30;28.80
30520;DHT22;17300;50.374;8.006;2023-06-01T13:26:16;32.20;28.80
30520;DHT22;17300;50.374;8.006;2023-06-01T13:28:44;32.10;28.80
30520;DHT22;17300;50.374;8.006;2023-06-01T13:31:10;32.00;29.10
30520;DHT22;17300;50.374;8.006;2023-06-01T13:33:37;31.80;29.10
30520;DHT22;17300;50.374;8.006;2023-06-01T13:36:05;31.70;29.20
30520;DHT22;17300;50.374;8.006;2023-06-01T13:38:31;31.70;29.40
30520;DHT22;17300;50.374;8.006;2023-06-01T13:40:58;31.60;29.60
30520;DHT22;17300;50.374;8.006;2023-06-01T13:43:25;31.50;29.60
30520;DHT22;17300;50.374;8.006;2023-06-01T13:45:53;31.40;29.80
30520;DHT22;17300;50.374;8.006;2023-06-01T13:48:20;31.30;29.90
30520;DHT22;17300;50.374;8.006;2023-06-01T13:50:46;31.30;29.90
30520;DHT22;17300;50.374;8.006;2023-06-01T13:53:13;31.30;30.00
30520;DHT22;17300;50.374;8.006;2023-06-01T13:55:40;31.20;30.00
30520;DHT22;17300;50.374;8.006;2023-06-01T13:58:06;31.20;30.10
30520;DHT22;17300;50.374;8.006;2023-06-01T14:00:33;31.10;30.10
30520;DHT22;17300;50.374;8.006;2023-06-01T14:03:01;31.10;30.00
30520;DHT22;17300;50.374;8.006;2023-06-01T14:05:28;31.00;30.10
30520;DHT22;17300;50.374;8.006;2023-06-01T14:07:55;31.00;30.30
30520;DHT22;17300;50.374;8.006;2023-06-01T14:10:21;31.00;30.10
30520;DHT22;17300;50.374;8.006;2023-06-01T14:12:48;31.00;30.10
30520;DHT22;17300;50.374;8.006;2023-06-01T14:15:15;30.90;30.00
30520;DHT22;17300;50.374;8.006;2023-06-01T14:17:42;30.90;29.90
30520;DHT22;17300;50.374;8.006;2023-06-01T14:20:10;30.80;29.70
30520;DHT22;17300;50.374;8.006;2023-06-01T14:22:37;30.70;29.30
30520;DHT22;17300;50.374;8.006;2023-06-01T14:25:04;30.70;29.30
30520;DHT22;17300;50.374;8.006;2023-06-01T14:27:31;30.60;29.30
30520;DHT22;17300;50.374;8.006;2023-06-01T14:29:58;30.50;28.90
30520;DHT22;17300;50.374;8.006;2023-06-01T14:32:26;30.40;29.20
30520;DHT22;17300;50.374;8.006;2023-06-01T14:34:52;30.30;28.90
30520;DHT22;17300;50.374;8.006;2023-06-01T14:37:20;30.30;29.00
30520;DHT22;17300;50.374;8.006;2023-06-01T14:39:47;30.10;28.90
30520;DHT22;17300;50.374;8.006;2023-06-01T14:42:15;30.10;28.90
30520;DHT22;17300;50.374;8.006;2023-06-01T14:44:41;30.00;28.70
30520;DHT22;17300;50.374;8.006;2023-06-01T14:47:08;29.90;28.40
30520;DHT22;17300;50.374;8.006;2023-06-01T14:49:36;29.90;28.50
30520;DHT22;17300;50.374;8.006;2023-06-01T14:52:03;29.80;28.30
30520;DHT22;17300;50.374;8.006;2023-06-01T14:54:31;29.70;28.30
30520;DHT22;17300;50.374;8.006;2023-06-01T14:56:58;29.60;28.30
30520;DHT22;17300;50.374;8.006;2023-06-01T14:59:26;29.60;28.10
30520;DHT22;17300;50.374;8.006;2023-06-01T15:01:52;29.50;28.00
30520;DHT22;17300;50.374;8.006;2023-06-01T15:04:19;29.50;28.00
30520;DHT22;17300;50.374;8.006;2023-06-01T15:06:46;29.40;27.70
30520;DHT22;17300;50.374;8.006;2023-06-01T15:09:12;29.30;27.80
30520;DHT22;17300;50.374;8.006;2023-06-01T15:11:40;29.30;27.70
30520;DHT22;17300;50.374;8.006;2023-06-01T15:14:07;29.30;27.70
30520;DHT22;17300;50.374;8.006;2023-06-01T15:16:33;29.30;27.70
30520;DHT22;17300;50.374;8.006;2023-06-01T15:19:00;29.20;27.60
30520;DHT22;17300;50.374;8.006;2023-06-01T15:21:27;29.20;27.80
30520;DHT22;17300;50.374;8.006;2023-06-01T15:23:53;29.20;27.60
30520;DHT22;17300;50.374;8.006;2023-06-01T15:26:20;29.10;27.60
30520;DHT22;17300;50.374;8.006;2023-06-01T15:28:48;29.20;27.60
30520;DHT22;17300;50.374;8.006;2023-06-01T15:31:15;29.10;27.60
30520;DHT22;17300;50.374;8.006;2023-06-01T15:33:41;29.10;27.70
30520;DHT22;17300;50.374;8.006;2023-06-01T15:36:08;29.00;27.80
30520;DHT22;17300;50.374;8.006;2023-06-01T15:38:35;29.00;27.80
30520;DHT22;17300;50.374;8.006;2023-06-01T15:41:01;28.90;28.00